Time;durP1;ratioP1;P1;durP2;ratioP2;P2;SDS_P1;SDS_P2;PMS_P1;PMS_P2;Temp;Humidity;BMP_temperature;BMP_pressure;BME280_temperature;BME280_humidity;BME280_pressure;Samples;Min_cycle;Max_cycle;Signal;HPM_P1;HPM_P2
2023/03/10 00:01:32;;;;;;;6.25;2.55;;;10.00;99.90;;;9.02;100.00;95418.09;4857959;29;20438;-75
2023/03/10 00:04:01;;;;;;;4.93;2.50;;;10.00;99.90;;;9.00;100.00;95403.66;4857672;29;20440;-75
2023/03/10 00:06:31;;;;;;;6.72;2.55;;;9.90;99.90;;;8.96;100.00;95394.75;4860207;29;20464;-74
2023/03/10 00:08:58;;;;;;;4.55;2.30;;;9.90;99.90;;;8.92;100.00;95384.00;4859255;29;20952;-75
2023/03/10 00:11:24;;;;;;;8.90;2.78;;;9.80;99.90;;;8.84;100.00;95374.88;4859737;29;20488;-75
2023/03/10 00:13:51;;;;;;;3.92;2.15;;;9.80;99.90;;;8.84;100.00;95368.81;4858367;29;20470;-75
2023/03/10 00:16:20;;;;;;;5.85;2.13;;;9.80;99.90;;;8.89;100.00;95352.91;4858241;29;20919;-75
2023/03/10 00:18:46;;;;;;;6.20;2.20;;;9.80;99.90;;;8.81;100.00;95362.25;4858308;29;20912;-74
2023/03/10 00:21:14;;;;;;;9.27;2.63;;;9.80;99.90;;;8.70;100.00;95358.22;4858943;29;20441;-75
2023/03/10 00:23:40;;;;;;;6.55;2.53;;;9.70;99.90;;;8.65;100.00;95358.28;4859024;29;20423;-75
2023/03/10 00:26:06;;;;;;;5.68;2.25;;;9.60;99.90;;;8.65;100.00;95360.13;4859016;29;20935;-76
2023/03/10 00:28:32;;;;;;;7.88;2.83;;;9.60;99.90;;;8.63;100.00;95347.28;4857969;29;20424;-74
2023/03/10 00:31:03;;;;;;;5.43;2.50;;;9.60;99.90;;;8.64;100.00;95342.78;4858624;29;20455;-75
2023/03/10 00:33:30;;;;;;;7.75;2.40;;;9.60;99.90;;;8.66;100.00;95337.97;4850471;29;20602;-75
2023/03/10 00:36:08;;;;;;;5.32;2.33;;;9.60;99.90;;;8.67;100.00;95327.16;4857174;29;20438;-74
2023/03/10 00:38:35;;;;;;;5.97;2.33;;;9.60;99.90;;;8.68;100.00;95320.00;4852065;29;20437;-74
2023/03/10 00:41:04;;;;;;;7.28;2.50;;;9.60;99.90;;;8.67;100.00;95321.09;4859349;29;20516;-75
2023/03/10 00:43:31;;;;;;;5.35;2.30;;;9.60;99.90;;;8.65;100.00;95316.09;4858875;29;20414;-74
2023/03/10 00:45:57;;;;;;;5.82;2.55;;;9.60;99.90;;;8.70;100.00;95315.25;4857952;29;20491;-75
2023/03/10 00:48:25;;;;;;;3.45;1.80;;;9.60;99.90;;;8.73;100.00;95315.44;4859410;29;20429;-75
2023/03/10 00:50:51;;;;;;;3.55;2.15;;;9.70;99.90;;;8.73;100.00;95304.09;4856870;29;20435;-74
2023/03/10 00:53:17;;;;;;;4.95;2.50;;;9.70;99.90;;;8.73;100.00;95307.53;4858459;29;20434;-75
2023/03/10 00:55:43;;;;;;;6.15;2.20;;;9.70;99.90;;;8.71;100.00;95307.03;4857852;29;20433;-74
2023/03/10 00:58:09;;;;;;;3.30;2.05;;;9.70;99.90;;;8.68;100.00;95307.63;4859065;29;21038;-74
2023/03/10 01:00:36;;;;;;;3.38;1.90;;;9.60;99.90;;;8.65;100.00;95297.63;4855538;29;20434;-75
2023/03/10 01:03:02;;;;;;;5.80;2.25;;;9.60;99.90;;;8.64;100.00;95303.22;4858817;29;20509;-75
2023/03/10 01:05:29;;;;;;;5.00;2.13;;;9.60;99.90;;;8.63;100.00;95297.16;4855817;29;20946;-74
2023/03/10 01:07:55;;;;;;;5.55;2.00;;;9.60;99.90;;;8.63;100.00;95296.38;4857963;29;20521;-74
2023/03/10 01:10:21;;;;;;;5.32;2.10;;;9.60;99.90;;;8.65;100.00;95291.56;4855386;29;20452;-75
2023/03/10 01:12:47;;;;;;;4.10;2.10;;;9.60;99.90;;;8.67;100.00;95284.94;4856446;29;20976;-75
2023/03/10 01:15:13;;;;;;;4.00;2.00;;;9.60;99.90;;;8.68;100.00;95281.25;4854633;29;20433;-73
2023/03/10 01:17:39;;;;;;;4.57;2.07;;;9.60;99.90;;;8.65;100.00;95279.16;4857872;29;20812;-74
2023/03/10 01:20:08;;;;;;;4.28;2.08;;;9.60;99.90;;;8.68;100.00;95267.28;4858280;29;20509;-74
2023/03/10 01:22:35;;;;;;;4.67;2.20;;;9.60;99.90;;;8.67;100.00;95263.06;4858505;29;20415;-74
2023/03/10 01:25:01;;;;;;;8.52;2.80;;;9.60;99.90;;;8.61;100.00;95266.88;4856081;29;20445;-74
2023/03/10 01:27:27;;;;;;;4.20;1.90;;;9.60;99.90;;;8.70;100.00;95265.13;4857743;29;20511;-74
2023/03/10 01:29:53;;;;;;;3.50;2.00;;;9.60;99.90;;;8.86;100.00;95263.78;4858059;29;20465;-74
2023/03/10 01:32:19;;;;;;;9.88;2.30;;;9.80;99.90;;;8.92;100.00;95247.56;4854614;29;20498;-74
2023/03/10 01:34:45;;;;;;;8.18;2.35;;;9.80;99.90;;;8.89;100.00;95257.91;4857728;29;20461;-74
2023/03/10 01:37:11;;;;;;;4.57;2.03;;;9.80;99.90;;;9.11;100.00;95250.09;4858243;29;20424;-74
2023/03/10 01:39:38;;;;;;;4.50;1.70;;;9.90;99.90;;;8.98;100.00;95242.97;4855948;29;20470;-74
2023/03/10 01:42:04;;;;;;;3.40;1.83;;;9.90;99.90;;;9.03;100.00;95240.22;4855877;29;20517;-74
2023/03/10 01:44:30;;;;;;;5.20;2.00;;;9.90;99.90;;;8.93;100.00;95241.22;4856700;29;20432;-74
2023/03/10 01:46:57;;;;;;;4.63;2.10;;;9.90;99.90;;;8.93;100.00;95243.88;4856156;29;20434;-74
2023/03/10 01:49:37;;;;;;;6.55;2.25;;;9.90;99.90;;;9.02;100.00;95245.81;4857815;29;20438;-74
2023/03/10 01:52:09;;;;;;;5.88;2.00;;;9.80;99.90;;;8.96;100.00;95237.19;4872268;29;20781;-74
2023/03/10 01:54:45;;;;;;;5.97;2.40;;;9.90;99.90;;;8.92;100.00;95238.88;4857705;29;20438;-74
2023/03/10 01:57:13;;;;;;;9.85;2.08;;;9.80;99.90;;;9.02;100.00;95241.31;4856561;29;20512;-75
2023/03/10 01:59:40;;;;;;;6.13;2.03;;;9.90;99.90;;;8.96;100.00;95231.13;4857638;29;20464;-74
2023/03/10 02:02:07;;;;;;;5.88;2.10;;;9.90;99.90;;;9.01;100.00;95231.84;4856981;29;20796;-73
2023/03/10 02:04:39;;;;;;;4.95;1.85;;;9.90;99.90;;;9.05;100.00;95226.75;4857421;29;20937;-74
2023/03/10 02:07:06;;;;;;;3.50;1.90;;;10.00;99.90;;;8.98;100.00;95229.00;4856694;29;20445;-74
2023/03/10 02:09:37;;;;;;;5.13;2.10;;;9.90;99.90;;;9.00;100.00;95219.72;4857366;29;20426;-74
2023/03/10 02:12:06;;;;;;;5.18;1.90;;;9.90;99.90;;;9.02;100.00;95216.81;4856819;29;20430;-74
2023/03/10 02:14:34;;;;;;;5.30;1.80;;;9.90;99.90;;;9.13;100.00;95202.31;4856741;29;20430;-74
2023/03/10 02:17:00;;;;;;;3.13;1.88;;;10.00;99.90;;;9.02;100.00;95211.53;4856344;29;20441;-74
2023/03/10 02:19:46;;;;;;;5.88;2.38;;;10.00;99.90;;;8.98;100.00;95202.63;4857017;29;20467;-74
2023/03/10 02:22:14;;;;;;;4.05;1.50;;;9.90;99.90;;;8.90;100.00;95210.13;4871840;29;20880;-74
2023/03/10 02:24:48;;;;;;;4.85;1.90;;;9.80;99.90;;;9.00;100.00;95203.91;4857150;29;20430;-74
2023/03/10 02:27:23;;;;;;;2.50;1.57;;;9.90;99.90;;;9.04;100.00;95206.72;4856121;29;20481;-74
2023/03/10 02:29:56;;;;;;;3.67;1.58;;;9.90;99.90;;;8.92;100.00;95213.28;4857301;29;20474;-74
2023/03/10 02:32:23;;;;;;;3.67;1.67;;;9.80;99.90;;;8.82;100.00;95202.91;4857647;29;20414;-74
2023/03/10 02:34:49;;;;;;;4.00;1.50;;;9.80;99.90;;;8.82;100.00;95204.75;4857522;29;20430;-74
2023/03/10 02:37:21;;;;;;;3.22;1.50;;;9.80;99.90;;;8.78;100.00;95201.16;4857032;29;20432;-74
2023/03/10 02:39:47;;;;;;;3.03;1.42;;;9.70;99.90;;;8.80;100.00;95194.50;4857514;29;20510;-75
2023/03/10 02:42:13;;;;;;;3.63;1.48;;;9.70;99.90;;;8.80;100.00;95209.53;4857053;29;20438;-75
2023/03/10 02:44:41;;;;;;;3.30;1.60;;;9.70;99.90;;;8.80;100.00;95204.25;4870003;29;20940;-75
2023/03/10 02:47:07;;;;;;;2.78;1.48;;;9.70;99.90;;;8.73;100.00;95196.75;4856629;29;20434;-75
2023/03/10 02:49:35;;;;;;;2.70;1.58;;;9.60;99.90;;;8.67;100.00;95195.28;4857284;29;20528;-74
2023/03/10 02:52:06;;;;;;;1.98;1.50;;;9.60;99.90;;;8.55;100.00;95184.44;4857490;29;20434;-75
2023/03/10 02:54:32;;;;;;;2.85;1.45;;;9.50;99.90;;;8.53;100.00;95187.34;4856320;29;20449;-75
2023/03/10 02:56:58;;;;;;;2.50;1.50;;;9.50;99.90;;;8.48;100.00;95179.53;4856314;29;20987;-74
2023/03/10 02:59:24;;;;;;;4.20;1.65;;;9.40;99.90;;;8.49;100.00;95162.63;4858729;29;20434;-75
2023/03/10 03:01:51;;;;;;;4.00;1.60;;;9.40;99.90;;;8.44;100.00;95172.50;4860428;29;21041;-74
2023/03/10 03:04:17;;;;;;;4.77;1.90;;;9.40;99.90;;;8.45;100.00;95171.44;4860240;29;20434;-74
2023/03/10 03:06:43;;;;;;;3.47;1.50;;;9.40;99.90;;;8.46;100.00;95173.78;4860803;29;20418;-74
2023/03/10 03:09:09;;;;;;;4.28;2.03;;;9.40;99.90;;;8.38;100.00;95185.00;4858812;29;20448;-74
2023/03/10 03:11:35;;;;;;;1.98;1.48;;;9.30;99.90;;;8.40;100.00;95195.25;4860308;29;20430;-74
2023/03/10 03:14:01;;;;;;;1.77;1.40;;;9.30;99.90;;;8.60;100.00;95192.25;4857632;29;20957;-74
2023/03/10 03:16:27;;;;;;;3.55;1.60;;;9.40;99.90;;;8.47;100.00;95196.44;4858861;29;20430;-73
2023/03/10 03:18:54;;;;;;;3.13;1.42;;;9.40;99.90;;;8.64;100.00;95181.91;4897094;23;20454;-72
2023/03/10 03:21:20;;;;;;;3.78;1.40;;;9.50;99.90;;;8.60;100.00;95186.19;4889781;29;20528;-73
2023/03/10 03:23:47;;;;;;;3.85;1.55;;;9.50;99.90;;;8.51;100.00;95191.34;4882426;29;20530;-73
2023/03/10 03:26:16;;;;;;;3.70;1.60;;;9.40;99.90;;;8.43;100.00;95189.38;4880943;29;20423;-73
2023/03/10 03:28:44;;;;;;;3.08;1.70;;;9.40;99.90;;;8.40;100.00;95184.72;4879547;29;20433;-73
2023/03/10 03:31:15;;;;;;;3.13;1.60;;;9.30;99.90;;;8.34;100.00;95172.69;4876447;29;20424;-73
2023/03/10 03:33:40;;;;;;;4.40;1.88;;;9.30;99.90;;;8.26;100.00;95171.47;4880982;29;20448;-73
2023/03/10 03:36:08;;;;;;;2.95;1.65;;;9.20;99.90;;;8.27;100.00;95161.72;4881640;29;20448;-73
2023/03/10 03:38:34;;;;;;;2.95;1.40;;;9.20;99.90;;;8.20;100.00;95156.00;4879758;29;20428;-73
2023/03/10 03:41:00;;;;;;;2.93;1.60;;;9.20;99.90;;;8.15;100.00;95138.44;4882302;29;20505;-72
2023/03/10 03:43:28;;;;;;;3.90;1.52;;;9.10;99.90;;;8.11;100.00;95143.53;4878466;29;20473;-72
2023/03/10 03:45:54;;;;;;;2.38;1.30;;;9.10;99.90;;;8.14;100.00;95150.06;4882768;29;20431;-73
2023/03/10 03:48:20;;;;;;;3.25;1.42;;;9.10;99.90;;;8.12;100.00;95152.19;4877140;29;20436;-73
2023/03/10 03:50:49;;;;;;;3.95;1.67;;;9.10;99.90;;;8.11;100.00;95161.97;4874190;29;20503;-72
2023/03/10 03:53:16;;;;;;;3.15;1.25;;;9.10;99.90;;;8.11;100.00;95158.56;4878867;29;20455;-73
2023/03/10 03:55:42;;;;;;;4.13;1.52;;;9.10;99.90;;;8.09;100.00;95150.94;4884427;29;20513;-73
2023/03/10 03:58:08;;;;;;;4.13;1.50;;;9.10;99.90;;;8.12;100.00;95145.06;4880037;29;20436;-73
2023/03/10 04:00:34;;;;;;;1.90;1.40;;;9.10;99.90;;;8.13;100.00;95156.41;4884364;29;20432;-73
2023/03/10 04:03:01;;;;;;;2.38;1.25;;;9.10;99.90;;;8.11;100.00;95142.75;4879768;29;20429;-73
2023/03/10 04:05:27;;;;;;;2.90;1.40;;;9.00;99.90;;;8.05;100.00;95146.53;4882110;29;21098;-73
2023/03/10 04:07:53;;;;;;;1.35;1.20;;;9.00;99.90;;;8.07;100.00;95147.81;4878160;29;20443;-73
2023/03/10 04:10:25;;;;;;;2.22;1.30;;;9.00;99.90;;;8.13;100.00;95137.94;4877292;29;20444;-73
2023/03/10 04:12:51;;;;;;;2.58;1.50;;;9.10;99.90;;;8.13;100.00;95140.59;4877576;29;20434;-74
2023/03/10 04:15:18;;;;;;;2.10;1.40;;;9.10;99.90;;;8.23;100.00;95137.00;4881083;29;20836;-73
2023/03/10 04:17:44;;;;;;;1.42;1.10;;;9.20;99.90;;;8.19;100.00;95134.19;4878956;29;20425;-73
2023/03/10 04:20:14;;;;;;;1.20;1.10;;;9.10;99.90;;;8.13;100.00;95128.19;4881180;29;20495;-72
2023/03/10 04:22:40;;;;;;;1.30;1.20;;;9.10;99.90;;;8.07;100.00;95132.00;4878289;29;20441;-73
2023/03/10 04:25:08;;;;;;;3.28;1.20;;;9.10;99.90;;;8.02;100.00;95128.66;4882515;29;20496;-73
2023/03/10 04:27:35;;;;;;;1.77;1.30;;;9.00;99.90;;;8.04;100.00;95135.19;4878583;29;20832;-72
2023/03/10 04:30:01;;;;;;;2.15;1.30;;;9.00;99.90;;;8.00;100.00;95128.16;4881051;29;20444;-73
2023/03/10 04:32:27;;;;;;;2.60;1.30;;;9.00;99.90;;;7.94;100.00;95138.03;4880078;29;20451;-73
2023/03/10 04:34:53;;;;;;;3.15;1.42;;;8.90;99.90;;;7.92;100.00;95137.53;4877757;29;20958;-73
2023/03/10 04:37:20;;;;;;;2.65;1.40;;;8.90;99.90;;;7.89;100.00;95145.22;4878039;29;20455;-73
2023/03/10 04:39:46;;;;;;;4.00;1.40;;;8.90;99.90;;;7.89;100.00;95138.13;4883174;29;20432;-73
2023/03/10 04:42:12;;;;;;;1.70;1.40;;;8.90;99.90;;;7.85;100.00;95137.09;4877991;29;20512;-73
2023/03/10 04:44:39;;;;;;;2.60;1.33;;;8.80;99.90;;;7.90;100.00;95133.59;4875817;29;20443;-74
2023/03/10 04:47:05;;;;;;;3.50;1.50;;;8.80;99.90;;;7.90;100.00;95133.59;4878202;29;20439;-73
2023/03/10 04:49:31;;;;;;;1.75;1.40;;;8.90;99.90;;;8.05;100.00;95134.13;4881422;29;21135;-73
2023/03/10 04:51:57;;;;;;;1.85;1.27;;;9.00;99.90;;;8.03;100.00;95135.50;4876853;29;20556;-73
2023/03/10 04:54:23;;;;;;;5.63;1.50;;;9.00;99.90;;;8.12;100.00;95126.63;4880568;29;20576;-73
2023/03/10 04:56:49;;;;;;;2.17;1.40;;;9.10;99.90;;;8.11;100.00;95124.31;4876292;29;20452;-73
2023/03/10 04:59:15;;;;;;;3.17;1.40;;;9.10;99.90;;;8.10;100.00;95128.78;4905387;29;20503;-73
2023/03/10 05:01:42;;;;;;;4.68;1.52;;;9.10;99.90;;;8.07;100.00;95108.28;4881497;29;20798;-73
2023/03/10 05:04:09;;;;;;;4.40;1.35;;;9.00;99.90;;;8.00;100.00;95121.06;4880991;29;21033;-73
2023/03/10 05:06:35;;;;;;;5.50;1.65;;;9.00;99.90;;;7.94;100.00;95103.78;4875061;29;20443;-74
2023/03/10 05:09:03;;;;;;;3.22;1.42;;;8.90;99.90;;;7.90;100.00;95099.34;4881508;29;20426;-73
2023/03/10 05:11:34;;;;;;;3.55;1.40;;;8.90;99.90;;;7.80;100.00;95100.34;4877988;29;21087;-73
2023/03/10 05:14:01;;;;;;;3.90;1.65;;;8.80;99.90;;;7.71;100.00;95097.56;4873834;29;20428;-73
2023/03/10 05:16:27;;;;;;;4.63;1.50;;;8.70;99.90;;;7.64;100.00;95107.69;4878440;29;20419;-73
2023/03/10 05:18:54;;;;;;;3.63;1.67;;;8.70;99.90;;;7.58;100.00;95100.94;4878159;29;20451;-73
2023/03/10 05:21:20;;;;;;;4.35;2.00;;;8.60;99.90;;;7.53;100.00;95089.69;4876068;29;20464;-73
2023/03/10 05:23:46;;;;;;;2.60;1.40;;;8.60;99.90;;;7.45;100.00;95090.34;4879777;29;20432;-73
2023/03/10 05:26:12;;;;;;;4.55;1.70;;;8.50;99.90;;;7.38;100.00;95086.22;4871827;29;20440;-74
2023/03/10 05:28:39;;;;;;;3.30;1.67;;;8.40;99.90;;;7.30;100.00;95089.50;4877883;29;20420;-73
2023/03/10 05:31:09;;;;;;;5.40;1.70;;;8.30;99.90;;;7.22;100.00;95081.47;4876820;29;20440;-76
2023/03/10 05:33:35;;;;;;;3.10;1.50;;;8.30;99.90;;;7.15;100.00;95081.84;4883436;29;20446;-73
2023/03/10 05:36:06;;;;;;;2.42;1.58;;;8.20;99.90;;;7.10;100.00;95075.88;4877052;29;20444;-73
2023/03/10 05:38:32;;;;;;;4.63;1.80;;;8.10;99.90;;;7.09;100.00;95085.63;4876833;29;20844;-73
2023/03/10 05:40:58;;;;;;;5.30;2.05;;;8.10;99.90;;;7.06;100.00;95088.84;4876566;29;20421;-73
2023/03/10 05:43:24;;;;;;;4.35;1.70;;;8.10;99.90;;;7.09;100.00;95084.84;4876632;29;20431;-73
2023/03/10 05:45:55;;;;;;;6.03;1.90;;;8.10;99.90;;;7.13;100.00;95089.25;4874226;29;20930;-73
2023/03/10 05:48:20;;;;;;;4.85;1.73;;;8.10;99.90;;;7.26;100.00;95090.38;4875702;29;20467;-73
2023/03/10 05:50:57;;;;;;;3.97;1.93;;;8.30;99.90;;;7.39;100.00;95093.06;4905932;29;20509;-73
2023/03/10 05:53:26;;;;;;;4.30;1.70;;;8.40;99.90;;;7.47;100.00;95080.31;4877122;29;20511;-79
2023/03/10 05:55:52;;;;;;;2.53;1.67;;;8.50;99.90;;;7.59;100.00;95080.69;4879690;29;20431;-77
2023/03/10 05:58:18;;;;;;;3.33;1.70;;;8.50;99.90;;;7.65;100.00;95067.13;4873754;29;20436;-75
2023/03/10 06:00:44;;;;;;;4.03;1.80;;;8.60;99.90;;;7.79;100.00;95059.25;4875127;29;20431;-76
2023/03/10 06:03:10;;;;;;;4.53;1.90;;;8.70;99.90;;;7.91;100.00;95056.16;4874528;29;20423;-73
2023/03/10 06:05:36;;;;;;;8.10;2.00;;;8.80;99.90;;;7.86;100.00;95049.13;4872145;29;20452;-75
2023/03/10 06:08:02;;;;;;;3.53;1.80;;;8.80;99.90;;;7.93;100.00;95057.44;4875928;29;20907;-75
2023/03/10 06:10:29;;;;;;;4.82;1.75;;;8.90;99.90;;;8.12;100.00;95044.94;4872942;29;20444;-75
2023/03/10 06:12:55;;;;;;;4.70;1.80;;;9.10;99.90;;;8.08;100.00;95053.72;4877197;29;20427;-75
2023/03/10 06:15:22;;;;;;;3.85;1.60;;;9.00;99.90;;;8.11;100.00;95053.94;4876412;29;20802;-74
2023/03/10 06:17:48;;;;;;;3.45;1.67;;;9.00;99.90;;;8.04;100.00;95053.53;4876380;29;20836;-77
2023/03/10 06:20:14;;;;;;;5.23;1.70;;;9.00;99.90;;;8.06;100.00;95055.88;4876659;29;20461;-75
2023/03/10 06:22:40;;;;;;;4.43;2.00;;;9.00;99.90;;;7.92;100.00;95049.81;4875109;29;20453;-75
2023/03/10 06:25:07;;;;;;;9.85;1.90;;;8.90;99.90;;;7.85;100.00;95042.28;4906597;29;20467;-74
2023/03/10 06:27:35;;;;;;;6.22;1.80;;;8.80;99.90;;;7.86;100.00;95035.97;4875174;29;20888;-75
2023/03/10 06:30:01;;;;;;;7.60;1.90;;;8.80;99.90;;;7.75;100.00;95021.41;4876582;29;20504;-76
2023/03/10 06:32:27;;;;;;;5.28;1.80;;;8.70;99.90;;;7.65;100.00;94998.69;4876607;29;20457;-74
2023/03/10 06:34:52;;;;;;;5.68;1.60;;;8.60;99.90;;;7.51;100.00;94987.34;4880505;29;20511;-74
2023/03/10 06:37:19;;;;;;;4.63;1.67;;;8.40;99.90;;;7.51;100.00;94989.19;4910335;29;20780;-75
2023/03/10 06:39:45;;;;;;;5.50;1.70;;;8.40;99.90;;;7.37;100.00;94968.88;4880472;29;20435;-75
2023/03/10 06:42:11;;;;;;;4.90;2.50;;;8.30;99.90;;;7.26;100.00;94978.03;4880203;29;20455;-74
2023/03/10 06:44:38;;;;;;;6.18;1.90;;;8.30;99.90;;;7.22;100.00;94984.91;4880363;29;20484;-74
2023/03/10 06:47:04;;;;;;;3.03;1.50;;;8.20;99.90;;;7.24;100.00;94990.69;4880256;29;20420;-74
2023/03/10 06:49:32;;;;;;;2.97;1.40;;;8.20;99.90;;;7.17;100.00;94995.53;4880466;29;20431;-74
2023/03/10 06:52:01;;;;;;;1.58;1.40;;;8.20;99.90;;;7.24;100.00;94989.91;4879666;29;20500;-74
2023/03/10 06:54:27;;;;;;;2.35;1.70;;;8.20;99.90;;;7.14;100.00;94998.72;4880070;29;20772;-73
2023/03/10 06:56:55;;;;;;;6.22;1.60;;;8.20;99.90;;;7.16;100.00;95001.06;4880348;29;20420;-75
2023/03/10 06:59:21;;;;;;;1.58;1.40;;;8.10;99.90;;;7.17;100.00;95000.00;4909728;29;20427;-75
2023/03/10 07:01:48;;;;;;;4.47;1.80;;;8.20;99.90;;;7.23;100.00;94997.00;4879138;29;20416;-75
2023/03/10 07:04:14;;;;;;;3.55;1.40;;;8.20;99.90;;;7.36;100.00;95006.81;4909601;29;20424;-73
2023/03/10 07:06:40;;;;;;;2.45;1.45;;;8.30;99.90;;;7.41;100.00;95007.78;4879502;29;20508;-72
2023/03/10 07:09:06;;;;;;;2.13;1.43;;;8.40;99.90;;;7.46;100.00;95008.47;4879441;29;20412;-72
2023/03/10 07:11:32;;;;;;;3.03;1.30;;;8.50;99.90;;;7.49;100.00;95009.75;4878596;29;20417;-71
2023/03/10 07:13:58;;;;;;;2.92;1.40;;;8.50;99.90;;;7.52;100.00;95002.03;4909283;29;20523;-71
2023/03/10 07:16:24;;;;;;;2.10;1.50;;;8.50;99.90;;;7.55;100.00;95005.97;4879687;29;20519;-72
2023/03/10 07:18:51;;;;;;;1.90;1.40;;;8.60;99.90;;;7.56;100.00;94997.78;4879538;29;20467;-72
2023/03/10 07:21:19;;;;;;;4.70;1.85;;;8.60;99.90;;;7.58;100.00;95000.13;4879492;29;20528;-72
2023/03/10 07:23:46;;;;;;;4.05;1.70;;;8.50;99.90;;;7.54;100.00;95007.81;4893671;29;20752;-73
2023/03/10 07:26:14;;;;;;;3.60;1.50;;;8.50;99.90;;;7.48;100.00;95013.44;4909834;29;20432;-72
2023/03/10 07:28:40;;;;;;;3.70;1.40;;;8.40;99.90;;;7.50;100.00;95019.22;4879477;29;20475;-73
2023/03/10 07:31:09;;;;;;;3.22;1.60;;;8.50;99.90;;;7.54;100.00;95025.47;4879544;29;20661;-73
2023/03/10 07:33:37;;;;;;;4.95;1.67;;;8.50;99.90;;;7.60;100.00;95034.81;4879188;29;20447;-73
2023/03/10 07:36:06;;;;;;;3.40;1.67;;;8.60;99.90;;;7.65;100.00;95029.50;4879472;29;20505;-73
2023/03/10 07:38:32;;;;;;;4.28;1.50;;;8.60;99.90;;;7.70;100.00;95030.19;4879276;29;20464;-73
2023/03/10 07:40:58;;;;;;;2.08;1.50;;;8.70;99.90;;;7.77;100.00;95033.22;4879302;29;20468;-72
2023/03/10 07:43:24;;;;;;;6.50;1.75;;;8.70;99.90;;;7.85;100.00;95037.03;4879049;29;20408;-73
2023/03/10 07:45:50;;;;;;;6.10;1.80;;;8.80;99.90;;;7.90;100.00;95034.28;4878584;29;20903;-72
2023/03/10 07:48:16;;;;;;;10.23;2.15;;;8.90;99.90;;;7.91;100.00;95029.81;4879182;29;20480;-73
2023/03/10 07:50:42;;;;;;;8.70;2.90;;;8.80;99.90;;;7.86;100.00;95038.59;4879157;29;20427;-72
2023/03/10 07:53:09;;;;;;;4.80;2.20;;;8.80;99.90;;;7.89;100.00;95038.03;4878862;29;20424;-72
2023/03/10 07:55:37;;;;;;;7.57;1.80;;;8.80;99.90;;;8.00;100.00;95041.25;4909183;29;20432;-73
2023/03/10 07:58:03;;;;;;;5.90;1.90;;;8.90;99.90;;;7.98;100.00;95049.44;4878814;29;20545;-73
2023/03/10 08:00:29;;;;;;;5.68;1.85;;;8.90;99.90;;;7.84;100.00;95051.25;4874412;29;20511;-74
2023/03/10 08:02:55;;;;;;;7.20;1.70;;;8.80;99.90;;;7.69;100.00;95057.56;4877364;29;20469;-75
2023/03/10 08:05:21;;;;;;;9.43;1.70;;;8.60;99.90;;;7.64;100.00;95062.16;4881936;29;20437;-75
2023/03/10 08:07:47;;;;;;;6.70;1.67;;;8.60;99.90;;;7.50;100.00;95072.66;4877554;29;20428;-74
2023/03/10 08:10:14;;;;;;;6.20;1.75;;;8.40;99.90;;;7.39;100.00;95076.50;4875273;29;20929;-75
2023/03/10 08:12:40;;;;;;;4.40;1.80;;;8.40;99.90;;;7.33;100.00;95073.16;4910857;29;20940;-78
2023/03/10 08:15:09;;;;;;;4.63;1.37;;;8.20;99.90;;;7.20;100.00;95091.53;4881813;29;20436;-74
2023/03/10 08:17:35;;;;;;;6.05;1.40;;;8.20;99.90;;;7.29;100.00;95087.94;4875965;29;20927;-75
2023/03/10 08:20:03;;;;;;;3.90;1.55;;;8.20;99.90;;;7.25;100.00;95080.91;4878290;29;20419;-75
2023/03/10 08:22:29;;;;;;;3.15;1.42;;;8.20;99.90;;;7.24;100.00;95064.34;4878494;29;20496;-75
2023/03/10 08:24:55;;;;;;;4.90;1.50;;;8.20;99.90;;;7.30;100.00;95071.09;4878719;29;20877;-75
2023/03/10 08:27:22;;;;;;;2.58;1.45;;;8.30;99.90;;;7.34;100.00;95077.38;4882976;29;20452;-75
2023/03/10 08:29:48;;;;;;;3.00;1.48;;;8.30;99.90;;;7.39;100.00;95077.28;4905694;29;20429;-76
2023/03/10 08:32:14;;;;;;;3.58;1.40;;;8.30;99.90;;;7.38;100.00;95078.34;4879153;29;20918;-75
2023/03/10 08:34:41;;;;;;;7.75;3.83;;;8.30;99.90;;;7.40;100.00;95091.22;4906219;29;20441;-75
2023/03/10 08:37:07;;;;;;;5.80;2.90;;;8.40;99.90;;;7.45;100.00;95088.50;4877540;29;20490;-75
2023/03/10 08:39:33;;;;;;;6.50;2.40;;;8.40;99.90;;;7.54;100.00;95080.72;4878022;29;20436;-75
2023/03/10 08:42:00;;;;;;;3.85;1.80;;;8.50;99.90;;;7.75;100.00;95092.50;4877100;29;20508;-76
2023/03/10 08:44:27;;;;;;;2.00;1.40;;;8.70;99.90;;;8.01;100.00;95088.38;4904654;29;20444;-77
2023/03/10 08:46:53;;;;;;;5.60;1.87;;;8.90;99.90;;;8.43;100.00;95108.44;4885796;29;21024;-74
2023/03/10 08:49:21;;;;;;;2.92;1.20;;;9.30;99.90;;;8.37;100.00;95090.38;4876930;29;20476;-76
2023/03/10 08:51:48;;;;;;;5.20;1.40;;;9.30;99.90;;;8.41;100.00;95084.25;4877901;29;20757;-75
2023/03/10 08:54:18;;;;;;;2.30;1.50;;;9.30;99.90;;;8.34;100.00;95086.50;4885018;29;20452;-78
2023/03/10 08:56:44;;;;;;;4.07;1.70;;;9.30;99.90;;;8.12;100.00;95088.97;4873630;29;20464;-77
2023/03/10 08:59:10;;;;;;;3.08;1.65;;;9.10;99.90;;;8.02;100.00;95084.66;4875522;29;20436;-77
2023/03/10 09:01:37;;;;;;;2.40;1.87;;;9.00;99.90;;;7.99;100.00;95089.72;4882187;29;20796;-77
2023/03/10 09:04:06;;;;;;;2.72;1.27;;;9.00;99.90;;;7.96;100.00;95099.00;4875734;29;20926;-74
2023/03/10 09:06:32;;;;;;;1.70;1.40;;;8.90;99.90;;;8.08;100.00;95104.56;4875697;29;20450;-77
2023/03/10 09:08:58;;;;;;;1.70;1.30;;;9.00;99.90;;;8.16;100.00;95105.75;4880952;29;20413;-75
2023/03/10 09:11:27;;;;;;;2.15;1.48;;;9.10;99.90;;;8.35;100.00;95109.13;4875462;29;20425;-75
2023/03/10 09:13:54;;;;;;;2.47;1.40;;;9.30;99.90;;;8.51;100.00;95106.97;4877814;29;20507;-77
2023/03/10 09:16:20;;;;;;;2.75;1.40;;;9.40;99.90;;;8.88;100.00;95104.13;4890198;29;20604;-76
2023/03/10 09:18:48;;;;;;;3.08;1.38;;;9.70;99.90;;;8.92;100.00;95099.03;4922850;23;20537;-79
2023/03/10 09:21:17;;;;;;;2.42;1.35;;;9.80;99.90;;;9.05;100.00;95102.72;4930310;29;20514;-80
2023/03/10 09:23:46;;;;;;;6.28;1.90;;;9.90;99.90;;;9.49;100.00;95094.09;4932185;29;20976;-82
2023/03/10 09:26:12;;;;;;;2.80;1.48;;;10.20;99.90;;;9.44;100.00;95110.84;4930556;29;20506;-78
2023/03/10 09:28:38;;;;;;;5.22;1.75;;;10.30;99.90;;;9.67;100.00;95116.91;4921768;29;20795;-78
2023/03/10 09:31:05;;;;;;;4.85;1.60;;;10.50;99.90;;;9.65;100.00;95111.91;4912203;29;20527;-78
2023/03/10 09:33:31;;;;;;;4.70;1.60;;;10.50;99.90;;;9.71;100.00;95107.28;4911688;29;20425;-82
2023/03/10 09:36:01;;;;;;;4.38;1.50;;;10.50;99.90;;;9.80;100.00;95123.97;4909572;29;20451;-78
2023/03/10 09:38:28;;;;;;;5.90;1.70;;;10.60;99.90;;;9.81;100.00;95112.34;4914430;29;20436;-81
2023/03/10 09:41:08;;;;;;;3.15;1.35;;;10.70;99.90;;;9.92;100.00;95110.25;4914769;29;20867;-80
2023/03/10 09:43:38;;;;;;;3.08;1.27;;;10.70;99.90;;;9.92;100.00;95116.28;4914529;29;20420;-79
2023/03/10 09:46:14;;;;;;;1.75;1.20;;;10.80;99.90;;;10.05;100.00;95117.31;4912836;29;20508;-81
2023/03/10 09:48:49;;;;;;;4.80;1.20;;;10.90;99.90;;;10.02;100.00;95109.97;4910608;29;20429;-81
2023/03/10 09:51:26;;;;;;;2.15;1.25;;;10.90;99.90;;;10.20;100.00;95116.94;4913090;29;20425;-82
2023/03/10 09:54:08;;;;;;;3.70;1.50;;;11.00;99.90;;;10.06;100.00;95121.50;4914613;29;20427;-82
2023/03/10 09:56:36;;;;;;;7.80;2.00;;;10.90;99.90;;;9.77;100.00;95113.25;4913249;29;20485;-84
2023/03/10 09:59:10;;;;;;;5.93;1.52;;;10.60;99.90;;;9.79;100.00;95117.13;4912749;29;20436;-84
2023/03/10 10:01:43;;;;;;;8.48;1.40;;;10.70;99.90;;;9.77;100.00;95111.41;4905416;29;20473;-80
2023/03/10 10:04:13;;;;;;;4.72;1.88;;;10.60;99.90;;;9.70;100.00;95111.00;4913309;29;20432;-80
2023/03/10 10:06:45;;;;;;;5.97;1.63;;;10.50;99.90;;;9.56;100.00;95111.06;4913478;29;20425;-79
2023/03/10 10:09:21;;;;;;;5.97;1.70;;;10.40;99.90;;;9.48;100.00;95103.88;4912657;29;20413;-81
2023/03/10 10:11:47;;;;;;;4.67;1.60;;;10.30;99.90;;;9.44;100.00;95121.41;4911618;29;20448;-79
2023/03/10 10:14:19;;;;;;;5.70;1.65;;;10.30;99.90;;;9.35;100.00;95117.13;4914183;29;20409;-81
2023/03/10 10:16:52;;;;;;;8.90;1.67;;;10.20;99.90;;;9.40;100.00;95117.03;4912631;29;20425;-82
2023/03/10 10:19:21;;;;;;;6.55;1.75;;;10.30;99.90;;;9.45;100.00;95101.84;4911858;29;20456;-79
2023/03/10 10:21:57;;;;;;;6.43;1.77;;;10.30;99.90;;;9.59;100.00;95107.84;4913927;29;20542;-79
2023/03/10 10:24:23;;;;;;;3.00;1.50;;;10.40;99.90;;;9.56;100.00;95108.44;4911118;29;20908;-79
2023/03/10 10:26:50;;;;;;;6.28;1.80;;;10.40;99.90;;;9.51;100.00;95111.19;4914021;29;20499;-79